<?xml version="1.0" encoding="utf-8"?>
<gpx xmlns:xsi="http://www.w3.org/2001/XMLSchema-instance" xmlns:xsd="http://www.w3.org/2001/XMLSchema" version="1.1" creator="Shapelink.com" xmlns="http://www.topografix.com/GPX/1/1" xmlns:gpxtpx="http://www.garmin.com/xmlschemas/TrackPointExtension/v1">
  <metadata>
    <name>Övrigt 1.14 km, 2020-02-10</name>
    <desc></desc>
    <author><name>Marian Moron</name></author> 
    <time>2020-02-10T20:58:08Z</time>
  </metadata>
  <trk>
    <name>Övrigt 1.14 km, 2020-02-10</name>
    <trkseg>
      <trkpt lat="51.23131022383" lon="4.458589766692">
        <ele>0</ele>
        <time>2020-02-10T20:58:08Z</time>
      </trkpt>
      <trkpt lat="51.231239312956" lon="4.458178802135">
        <ele>0</ele>
        <time>2020-02-10T20:58:54Z</time>
      </trkpt>
      <trkpt lat="51.231231098694" lon="4.458049217961">
        <ele>0</ele>
        <time>2020-02-10T20:59:04Z</time>
      </trkpt>
      <trkpt lat="51.231168150625" lon="4.457544795219">
        <ele>0</ele>
        <time>2020-02-10T20:59:26Z</time>
      </trkpt>
      <trkpt lat="51.231225147545" lon="4.457283866672">
        <ele>0</ele>
        <time>2020-02-10T20:59:40Z</time>
      </trkpt>
      <trkpt lat="51.231317180807" lon="4.456584061841">
        <ele>0</ele>
        <time>2020-02-10T21:00:11Z</time>
      </trkpt>
      <trkpt lat="51.231324389241" lon="4.456524717989">
        <ele>0</ele>
        <time>2020-02-10T21:00:14Z</time>
      </trkpt>
      <trkpt lat="51.23130687107" lon="4.456490603656">
        <ele>0</ele>
        <time>2020-02-10T21:00:16Z</time>
      </trkpt>
      <trkpt lat="51.231201510587" lon="4.456429667243">
        <ele>0</ele>
        <time>2020-02-10T21:00:24Z</time>
      </trkpt>
      <trkpt lat="51.231174269412" lon="4.456417932583">
        <ele>0</ele>
        <time>2020-02-10T21:00:26Z</time>
      </trkpt>
      <trkpt lat="51.231175694335" lon="4.456383315336">
        <ele>0</ele>
        <time>2020-02-10T21:00:29Z</time>
      </trkpt>
      <trkpt lat="51.231173850317" lon="4.456306453313">
        <ele>0</ele>
        <time>2020-02-10T21:00:37Z</time>
      </trkpt>
      <trkpt lat="51.231014678036" lon="4.456178377881">
        <ele>0</ele>
        <time>2020-02-10T21:00:54Z</time>
      </trkpt>
      <trkpt lat="51.230944940628" lon="4.4561952255">
        <ele>0</ele>
        <time>2020-02-10T21:01:38Z</time>
      </trkpt>
      <trkpt lat="51.230936139633" lon="4.456026330215">
        <ele>0</ele>
        <time>2020-02-10T21:01:47Z</time>
      </trkpt>
      <trkpt lat="51.230734890214" lon="4.455788451893">
        <ele>0</ele>
        <time>2020-02-10T21:02:03Z</time>
      </trkpt>
      <trkpt lat="51.2307092416" lon="4.455772274826">
        <ele>0</ele>
        <time>2020-02-10T21:02:08Z</time>
      </trkpt>
      <trkpt lat="51.23057177844" lon="4.455579239669">
        <ele>0</ele>
        <time>2020-02-10T21:02:20Z</time>
      </trkpt>
      <trkpt lat="51.230166010661" lon="4.455235414131">
        <ele>0</ele>
        <time>2020-02-10T21:02:49Z</time>
      </trkpt>
      <trkpt lat="51.230135249088" lon="4.45523633614">
        <ele>0</ele>
        <time>2020-02-10T21:02:53Z</time>
      </trkpt>
      <trkpt lat="51.2300973629" lon="4.455162743058">
        <ele>0</ele>
        <time>2020-02-10T21:03:06Z</time>
      </trkpt>
      <trkpt lat="51.23006886444" lon="4.45512988601">
        <ele>0</ele>
        <time>2020-02-10T21:03:09Z</time>
      </trkpt>
      <trkpt lat="51.229833249231" lon="4.455116642608">
        <ele>0</ele>
        <time>2020-02-10T21:03:41Z</time>
      </trkpt>
      <trkpt lat="51.229803409667" lon="4.455117396979">
        <ele>0</ele>
        <time>2020-02-10T21:03:45Z</time>
      </trkpt>
      <trkpt lat="51.229681536841" lon="4.454989656823">
        <ele>0</ele>
        <time>2020-02-10T21:03:54Z</time>
      </trkpt>
      <trkpt lat="51.229624791378" lon="4.454967444788">
        <ele>0</ele>
        <time>2020-02-10T21:03:59Z</time>
      </trkpt>
      <trkpt lat="51.229540301826" lon="4.454948669332">
        <ele>0</ele>
        <time>2020-02-10T21:04:07Z</time>
      </trkpt>
      <trkpt lat="51.229458829758" lon="4.454938191957">
        <ele>0</ele>
        <time>2020-02-10T21:04:13Z</time>
      </trkpt>
      <trkpt lat="51.229378363518" lon="4.454869711834">
        <ele>0</ele>
        <time>2020-02-10T21:04:23Z</time>
      </trkpt>
      <trkpt lat="51.22902364151" lon="4.454837776795">
        <ele>0</ele>
        <time>2020-02-10T21:04:57Z</time>
      </trkpt>
      <trkpt lat="51.228672607538" lon="4.454678520695">
        <ele>0</ele>
        <time>2020-02-10T21:05:30Z</time>
      </trkpt>
      <trkpt lat="51.228372786975" lon="4.454697547608">
        <ele>0</ele>
        <time>2020-02-10T21:05:56Z</time>
      </trkpt>
      <trkpt lat="51.228146727132" lon="4.454732835407">
        <ele>0</ele>
        <time>2020-02-10T21:06:33Z</time>
      </trkpt>
      <trkpt lat="51.228056956983" lon="4.454749599207">
        <ele>0</ele>
        <time>2020-02-10T21:06:49Z</time>
      </trkpt>
      <trkpt lat="51.227720591336" lon="4.454752951967">
        <ele>0</ele>
        <time>2020-02-10T21:07:20Z</time>
      </trkpt>
      <trkpt lat="51.227606094582" lon="4.454792179259">
        <ele>0</ele>
        <time>2020-02-10T21:07:30Z</time>
      </trkpt>
      <trkpt lat="51.22779066402" lon="4.455274473785">
        <ele>0</ele>
        <time>2020-02-10T21:08:00Z</time>
      </trkpt>
      <trkpt lat="51.227947657007" lon="4.455702956513">
        <ele>0</ele>
        <time>2020-02-10T21:08:23Z</time>
      </trkpt>
      <trkpt lat="51.228069865109" lon="4.455945863975">
        <ele>0</ele>
        <time>2020-02-10T21:08:47Z</time>
      </trkpt>
      <trkpt lat="51.228290309079" lon="4.456541733246">
        <ele>0</ele>
        <time>2020-02-10T21:09:30Z</time>
      </trkpt>
      <trkpt lat="51.228505388633" lon="4.457124023839">
        <ele>2</ele>
        <time>2020-02-10T21:10:15Z</time>
      </trkpt>
      <trkpt lat="51.228535060559" lon="4.457488301213">
        <ele>0</ele>
        <time>2020-02-10T21:10:41Z</time>
      </trkpt>
      <trkpt lat="51.228545286477" lon="4.457606486003">
        <ele>0</ele>
        <time>2020-02-10T21:10:51Z</time>
      </trkpt>
      <trkpt lat="51.228582083018" lon="4.45802834703">
        <ele>0</ele>
        <time>2020-02-10T21:11:15Z</time>
      </trkpt>
      <trkpt lat="51.228615526799" lon="4.458205708034">
        <ele>0</ele>
        <time>2020-02-10T21:11:25Z</time>
      </trkpt>
      <trkpt lat="51.22902950884" lon="4.458191961718">
        <ele>0</ele>
        <time>2020-02-10T21:12:06Z</time>
      </trkpt>
      <trkpt lat="51.229444245252" lon="4.458024910451">
        <ele>0</ele>
        <time>2020-02-10T21:12:47Z</time>
      </trkpt>
      <trkpt lat="51.229847833737" lon="4.457855847528">
        <ele>2.2</ele>
        <time>2020-02-10T21:13:18Z</time>
      </trkpt>
      <trkpt lat="51.229918325516" lon="4.457874455346">
        <ele>0.4</ele>
        <time>2020-02-10T21:13:38Z</time>
      </trkpt>
      <trkpt lat="51.229751777163" lon="4.457896164467">
        <ele>6.6</ele>
        <time>2020-02-10T21:14:29Z</time>
      </trkpt>
    </trkseg>
  </trk>
</gpx>